METAR AND TAF INFORMATION
METAR FOR LEAS
ADDS - METARS form results

(0305 UTC 07 April 2020)
Data provider http://aviationweather.gov/metar/data/
 
METAR text: LEAS 070300Z AUTO 12005KT 100V170 9999 OVC008 11/10 Q1022
Conditions at: LEAS (ASTURIAS/AVILES , ES) observed 0300 UTC 07 April 2020
Temperature: 11.0°C (52°F)
Dewpoint: 10.0°C (50°F) [RH = 94%]
Pressure (altimeter): 30.18 inches Hg (1022.0 mb)
Winds: from the ESE (120 degrees) at 6 MPH (5 knots; 2.6 m/s)
Visibility: 6 or more miles (10+ km)
Ceiling: 800 feet AGL
Clouds: overcast cloud deck at 800 feet AGL
Weather: no significant weather observed at this time

METAR text: LEAS 070230Z AUTO 13003KT 070V170 9999 OVC007 11/10 Q1022
Conditions at: LEAS (ASTURIAS/AVILES , ES) observed 0230 UTC 07 April 2020
Temperature: 11.0°C (52°F)
Dewpoint: 10.0°C (50°F) [RH = 94%]
Pressure (altimeter): 30.18 inches Hg (1022.0 mb)
Winds: from the SE (130 degrees) at 3 MPH (3 knots; 1.5 m/s)
Visibility: 6 or more miles (10+ km)
Ceiling: 700 feet AGL
Clouds: overcast cloud deck at 700 feet AGL
Weather: no significant weather observed at this time

Forecast for: LEAS (ASTURIAS/AVILES , ES)
Text: TAF LEAS 070200Z 0703/0803 10007KT 9999 SCT010 BKN060 TX18/0714Z TN09/0706Z
Forecast period: 0300 UTC 07 April 2020 to 0300 UTC 08 April 2020
Forecast type: FROM: standard forecast or significant change
Winds: from the E (100 degrees) at 8 MPH (7 knots; 3.6 m/s)
Visibility: 6 or more miles 10+ km)
Ceiling: 6000 feet AGL
Clouds: scattered clouds at 1000 feet AGL
broken clouds at 6000 feet AGL
Weather: no significant weather forecast for this period
Text: TEMPO 0703/0707 3000 BR BKN010
Forecast period: 0300 to 0700 UTC 07 April 2020
Forecast type: TEMPORARY: The following changes expected for less than half the time period
Visibility: 1.86 miles (2.99 km)
Ceiling: 1000 feet AGL
Clouds: broken clouds at 1000 feet AGL
Weather: BR  (mist)
Text: TEMPO 0711/0718 04010KT
Forecast period: 1100 to 1800 UTC 07 April 2020
Forecast type: TEMPORARY: The following changes expected for less than half the time period
Winds: from the NE (40 degrees) at 12 MPH (10 knots; 5.1 m/s)
Visibility: missing
Ceiling: unknown
Clouds: missing
Weather: no significant weather forecast for this period

 AIRPORT MAP

 RUNWAY INFORMATION
Runway 11 Runway length 7218 ft Runway width 148 ft
Runway elevation 399 ft Runway displaced threshold 0 ft Runway heading 109
Runway 29 Runway length 7218 ft Runway width 148 ft
Runway elevation 399 ft Runway displaced threshold 0 ft Runway heading 289

 AIRPORT FREQUENCIES
Type APP Name APP Frequency 118.15 MHZ
Type GND Name GND Frequency 121.7 MHZ
Type TWR Name TWR Frequency 118.15 MHZ

 AIRPORT NEAR NAVIGATION AIDS
Type NDB Name Asturias Frequency 325 KHZ
Type NDB Name Asturias Frequency 387 KHZ
Type VOR-DME Name Asturias Frequency 112400 KHZ



Powered by Virtual Airlines Manager [v2.6.2]